Blacklick, OH (43004)

7:12 PM EST on February 14, 2016 (GMT -0500)
Timber Creek | | Change Station
CLOSE
Current Station
Personal Weather Station
Location: Reynoldsburg, OH
Elevation: 926 ft
Nearby Weather Stations
Active Advisory: Special Statement

Elev 926 ft 39.98 °N, 82.81 °W | Updated 7 seconds ago

Snow
Snow
15.6 °F
Feels Like 9 °F
N
3.8
Wind Variable Wind from NE
Gusts 5.4 mph

Today
High -- | Low -- °F
--% Chance of Precip.
Yesterday
High -- | Low -- °F
Precip. -- in
Pressure 30.25 in
Visibility 1.2 miles
Clouds Overcast 1800 ft
Windchill 9 °F
Dew Point 14 °F
Humidity 93%
Rainfall 0.00 in
Snow Depth Not available.
7:25 AM 6:05 PM
Waxing Crescent, 46% visible
SPECI KCMH 150009Z 09004KT 1 1/4SM -SN OVC018 M09/M12 A3025 RMK AO2 P0001
Pressure 30.25 in
Visibility 1.2 miles
Clouds Overcast 1800 ft
Windchill 9 °F
Dew Point 14 °F
Humidity 93%
Rainfall 0.00 in
Snow Depth Not available.
7:25 AM 6:05 PM
Waxing Crescent, 46% visible
SPECI KCMH 150009Z 09004KT 1 1/4SM -SN OVC018 M09/M12 A3025 RMK AO2 P0001

10-Day Weather Forecast

Almanac

Astronomy

Feb. 14, 2016 Rise Set
Actual Time
Civil Twilight
Nautical Twilight
Astronomical Twilight
Moon
Length of Visible Light
Length of Day
Tomorrow will be .
, % of the Moon is Illuminated

Today's Extremes

State Highs State Lows

Community

WunderPhotos

Upload Photos

1,892,938 photos uploaded!

WunderBlog® & News

Nearby

Air Quality

  Air Quality AQ Index Pollutant
Not available.

Snow Depth

Station Depth Elevation

Earthquake Activity

City Distance Mag. Time & Date
Minimum magnitude displayed is 2.5.

Coastal Water Temperatures

Place Temperature

Stations

Nearby Weather Stations

Station Location Temp. Windchill Dew Point Humidity Wind Precip. Elev Updated Type
                   

Watches & Warnings

Special Statement
Issued: 4:52 PM EST Feb. 14, 2016 – National Weather Service

Snow will overspread the region this afternoon and see a quick
inch or two of accumulation by this evening. The snow will taper to
flurries late this evening with light accumulations under a half
inch expected overnight.

Visibilities will be significantly reduced at times and the rapid
accumulation will make even treated roadways hazardous.



452 PM EST sun Feb 14 2016

Snow will overspread the region this afternoon and see a quick
inch or two of accumulation by this evening. The snow will taper to
flurries late this evening with light accumulations under a half
inch expected overnight.

Visibilities will be significantly reduced at times and the rapid
accumulation will make even treated roadways hazardous.